首页
METAR-TAF:

METAR-TAF

机场 :

洛杉磯國際機場

洛杉矶, 加利福尼亚州, 美国

纬度: 33-56-17N, 经度: 118-23-20W, 海拔: 38米

当前天气观测

该预报发布于47分钟前的16:06 UTC
风速7节,风向西转西南
温度 20°C
湿度 78%
气压 1013 hPa
能見度: 16.1公里
散云层高于1300英尺
多云层高于14000英尺

METAR: KLAX 231606Z 25007KT 10SM SCT013 BKN140 20/16 A2992 RMK AO2 T02000161 $

时间: 09:53 (16:53 UTC)

预报

该预报发布于39分钟前的16:14 UTC
预报有效从23日的 16点(UTC)到 24日的 18点(UTC)
风速7节,风向西转西南
能見度: 10公里
散云层高于1300英尺
多云层高于14000英尺
从 23日的 1900点(UTC)
风速14节,风向西
能見度: 10公里
天空无云
从 24日的 0200点(UTC)
风速8节,风向西转西南
能見度: 10公里
天空无云
从 24日的 0700点(UTC)
风速3节,风向多变
能見度: 10公里
阴天层高于1000英尺
从 24日的 1700点(UTC)
风速3节,风向多变
能見度: 10公里
散云层高于1500英尺

TAF: KLAX 231614Z 2316/2418 24007KT P6SM SCT013 BKN140 FM231900 27014KT P6SM SKC FM240200 24008KT P6SM SKC FM240700 VRB03KT P6SM OVC010 FM241700 VRB03KT P6SM SCT015

超过4000个机场的气象观测和天气预报(METAR&TAF报告)。

可查询的气象台以黄色和红色小点在地图上表示。

将鼠标移到小点上方,可查看气象台名称。

然后点击查看天气观测和预报。

如需切换地图:点击带黑十字的绿色按钮放大地图;点击带横线的绿色按钮缩小地图;或者点击绿色箭头查看邻近地区的地图。


METAR-TAF: